createdAt,value
2017-12-23T00:00:19.763Z,195.50
2017-12-23T00:01:19.514Z,207.70
2017-12-23T00:02:20.056Z,193.10
2017-12-23T00:03:20.534Z,199.80
2017-12-23T00:04:20.068Z,201.50
2017-12-23T00:05:20.608Z,205.10
2017-12-23T00:06:19.890Z,211.70
2017-12-23T00:07:19.740Z,210.90
2017-12-23T00:08:20.813Z,216.00
2017-12-23T00:09:19.911Z,231.20
2017-12-23T00:10:19.988Z,228.70
2017-12-23T00:11:21.163Z,241.20
2017-12-23T00:12:19.666Z,237.20
2017-12-23T00:13:20.135Z,250.00
2017-12-23T00:14:20.496Z,252.10
2017-12-23T00:15:19.610Z,246.10
2017-12-23T00:16:19.878Z,257.60
2017-12-23T00:17:20.742Z,263.30
2017-12-23T00:18:19.875Z,261.10
2017-12-23T00:19:20.320Z,276.00
2017-12-23T00:20:41.599Z,291.90
2017-12-23T00:21:41.901Z,285.50
2017-12-23T00:22:42.638Z,295.70
2017-12-23T00:23:42.043Z,265.50
2017-12-23T00:24:42.877Z,288.90
2017-12-23T00:25:41.954Z,280.70
2017-12-23T00:26:41.714Z,254.90
2017-12-23T00:27:42.381Z,269.10
2017-12-23T00:28:41.650Z,276.20
2017-12-23T00:29:41.994Z,267.00
2017-12-23T00:30:42.455Z,255.00
2017-12-23T00:31:41.806Z,256.60
2017-12-23T00:32:41.599Z,233.80
2017-12-23T00:33:42.449Z,256.20
2017-12-23T00:34:41.952Z,256.50
2017-12-23T00:35:42.256Z,252.50
2017-12-23T00:36:40.971Z,240.60
2017-12-23T00:37:42.466Z,247.00
2017-12-23T00:38:42.378Z,232.40
2017-12-23T00:39:41.087Z,221.50
2017-12-23T00:40:41.786Z,226.00
2017-12-23T00:41:42.177Z,232.20
2017-12-23T00:43:04.780Z,204.70
2017-12-23T00:44:05.464Z,218.90
2017-12-23T00:45:04.790Z,209.60
2017-12-23T00:46:04.785Z,218.90
2017-12-23T00:47:05.212Z,223.60
2017-12-23T00:48:05.709Z,219.50
2017-12-23T00:49:05.523Z,213.20
2017-12-23T00:50:04.697Z,229.10
2017-12-23T00:51:05.132Z,242.20
2017-12-23T00:52:05.544Z,230.90
2017-12-23T00:53:04.998Z,214.90
2017-12-23T00:54:05.454Z,232.60
2017-12-23T00:55:04.362Z,222.10
2017-12-23T00:56:04.790Z,227.10
2017-12-23T00:57:05.135Z,232.30
2017-12-23T00:58:04.839Z,268.30
2017-12-23T00:59:04.743Z,259.70
2017-12-23T01:00:04.936Z,272.20
2017-12-23T01:01:05.328Z,290.70
2017-12-23T01:02:04.119Z,269.40
2017-12-23T01:03:05.595Z,269.70
2017-12-23T01:04:05.000Z,294.40
2017-12-23T01:05:05.810Z,261.00
2017-12-23T01:06:05.280Z,295.90
2017-12-23T01:07:05.682Z,283.80
2017-12-23T01:08:05.049Z,302.60
2017-12-23T01:09:04.813Z,302.10
2017-12-23T01:10:04.935Z,318.00
2017-12-23T01:11:27.884Z,312.30
2017-12-23T01:12:27.598Z,321.00
2017-12-23T01:13:27.477Z,316.60
2017-12-23T01:14:27.546Z,287.10
2017-12-23T01:15:27.438Z,331.80
2017-12-23T01:16:28.111Z,339.00
2017-12-23T01:17:28.192Z,324.20
2017-12-23T01:18:28.423Z,342.40
2017-12-23T01:19:27.456Z,351.70
2017-12-23T01:20:27.781Z,380.30
2017-12-23T01:21:28.587Z,376.70
2017-12-23T01:22:28.129Z,375.20
2017-12-23T01:23:28.327Z,362.20
2017-12-23T01:24:27.877Z,382.20
2017-12-23T01:25:27.469Z,386.00
2017-12-23T01:26:27.150Z,417.50
2017-12-23T01:27:28.979Z,429.70
2017-12-23T01:28:28.439Z,419.60
2017-12-23T01:29:27.492Z,426.90
2017-12-23T01:30:27.654Z,419.30
2017-12-23T01:31:27.807Z,420.80
2017-12-23T01:32:27.884Z,404.00
2017-12-23T01:33:28.437Z,434.90
2017-12-23T01:34:27.150Z,442.50
2017-12-23T01:35:27.749Z,445.80
2017-12-23T01:36:27.491Z,444.20
2017-12-23T01:37:28.724Z,437.30
2017-12-23T01:38:28.072Z,436.00
2017-12-23T01:39:28.104Z,430.30
2017-12-23T01:40:28.426Z,461.90
2017-12-23T01:41:27.903Z,493.60
2017-12-23T01:42:28.515Z,518.90
2017-12-23T01:43:27.310Z,502.20
2017-12-23T01:44:50.837Z,501.40
2017-12-23T01:45:52.167Z,499.30
2017-12-23T01:46:50.824Z,484.90
2017-12-23T01:47:51.202Z,504.50
2017-12-23T01:48:51.642Z,494.20
2017-12-23T01:49:52.982Z,442.90
2017-12-23T01:50:51.340Z,444.10
2017-12-23T01:51:51.670Z,476.80
2017-12-23T01:53:13.064Z,524.30
2017-12-23T01:54:12.770Z,513.10
2017-12-23T01:55:14.663Z,457.30
2017-12-23T01:56:13.568Z,483.00
2017-12-23T01:57:14.057Z,505.90
2017-12-23T01:58:13.440Z,473.50
2017-12-23T01:59:13.773Z,460.90
2017-12-23T02:00:13.863Z,471.80
2017-12-23T02:01:14.492Z,438.30
2017-12-23T02:02:58.090Z,499.00
2017-12-23T02:03:58.747Z,468.10
2017-12-23T02:04:59.144Z,494.60
2017-12-23T02:05:59.078Z,477.10
2017-12-23T02:06:59.277Z,467.70
2017-12-23T02:07:59.272Z,484.90
2017-12-23T02:08:59.100Z,470.70
2017-12-23T02:09:59.466Z,477.40
2017-12-23T02:10:59.732Z,459.20
2017-12-23T02:11:58.984Z,457.00
2017-12-23T02:12:59.644Z,456.60
2017-12-23T02:13:59.088Z,449.00
2017-12-23T02:14:59.048Z,455.80
2017-12-23T02:15:58.828Z,467.10
2017-12-23T02:16:59.158Z,450.40
2017-12-23T02:17:59.763Z,442.50
2017-12-23T02:18:58.535Z,466.20
2017-12-23T02:19:58.428Z,458.20
2017-12-23T02:20:58.249Z,444.70
2017-12-23T02:21:59.633Z,451.70
2017-12-23T02:22:59.227Z,421.00
2017-12-23T02:24:00.111Z,382.60
2017-12-23T02:24:59.587Z,433.90
2017-12-23T02:25:58.868Z,382.90
2017-12-23T02:26:59.086Z,410.00
2017-12-23T02:27:58.933Z,385.20
2017-12-23T02:29:20.675Z,378.20
2017-12-23T02:30:21.156Z,392.10
2017-12-23T02:31:21.326Z,362.60
2017-12-23T02:32:20.982Z,381.20
2017-12-23T02:33:21.400Z,388.40
2017-12-23T02:34:44.316Z,373.90
2017-12-23T02:35:44.178Z,384.50
2017-12-23T02:36:44.752Z,360.10
2017-12-23T02:37:45.684Z,351.00
2017-12-23T02:38:44.952Z,380.10
2017-12-23T02:39:44.258Z,352.90
2017-12-23T02:40:44.014Z,357.90
2017-12-23T02:41:44.043Z,382.70
2017-12-23T02:42:44.513Z,372.00
2017-12-23T02:43:44.466Z,360.70
2017-12-23T02:44:45.379Z,364.30
2017-12-23T02:45:44.371Z,318.30
2017-12-23T02:46:44.753Z,353.70
2017-12-23T02:47:45.272Z,342.40
2017-12-23T02:48:44.303Z,322.70
2017-12-23T02:49:44.471Z,340.70
2017-12-23T02:50:45.019Z,353.50
2017-12-23T02:51:43.963Z,341.80
2017-12-23T02:52:43.857Z,349.00
2017-12-23T02:53:44.788Z,354.40
2017-12-23T02:54:45.294Z,370.60
2017-12-23T02:55:43.983Z,350.40
2017-12-23T02:56:45.300Z,332.00
2017-12-23T02:57:44.214Z,329.40
2017-12-23T02:58:44.088Z,313.60
2017-12-23T02:59:44.597Z,304.80
2017-12-23T03:00:44.844Z,353.70
2017-12-23T03:01:45.322Z,334.20
2017-12-23T03:02:44.012Z,320.40
2017-12-23T03:03:44.508Z,305.10
2017-12-23T03:04:44.832Z,319.40
2017-12-23T03:05:45.792Z,286.30
2017-12-23T03:06:45.286Z,282.00
2017-12-23T03:07:44.262Z,291.90
2017-12-23T03:08:44.256Z,302.90
2017-12-23T03:09:43.946Z,306.60
2017-12-23T03:10:44.411Z,285.60
2017-12-23T03:11:45.224Z,290.80
2017-12-23T03:12:44.671Z,293.50
2017-12-23T03:13:44.566Z,271.00
2017-12-23T03:15:08.475Z,243.90
2017-12-23T03:16:09.167Z,247.10
2017-12-23T03:17:09.224Z,223.70
2017-12-23T03:18:09.638Z,184.60
2017-12-23T03:19:10.012Z,195.40
2017-12-23T03:20:08.638Z,194.10
2017-12-23T03:21:08.555Z,190.70
2017-12-23T03:22:10.431Z,197.30
2017-12-23T03:23:09.435Z,198.20
2017-12-23T03:24:09.071Z,167.80
2017-12-23T03:25:08.924Z,181.60
2017-12-23T03:26:09.620Z,138.30
2017-12-23T03:27:10.367Z,165.30
2017-12-23T03:28:09.449Z,164.90
2017-12-23T03:29:09.299Z,149.30
2017-12-23T03:30:09.681Z,150.70
2017-12-23T03:31:09.195Z,140.80
2017-12-23T03:32:09.400Z,135.80
2017-12-23T03:33:09.455Z,122.80
2017-12-23T03:34:09.315Z,123.50
2017-12-23T03:35:09.127Z,113.30
2017-12-23T03:36:09.536Z,112.80
2017-12-23T03:37:32.886Z,108.00
2017-12-23T03:38:33.912Z,106.50
2017-12-23T03:39:34.074Z,108.20
2017-12-23T03:40:33.371Z,111.90
2017-12-23T03:41:55.732Z,111.70
2017-12-23T03:42:56.559Z,115.30
2017-12-23T03:43:55.458Z,112.80
2017-12-23T03:44:55.379Z,109.20
2017-12-23T03:45:55.917Z,110.90
2017-12-23T03:46:56.369Z,116.90
2017-12-23T03:47:55.758Z,119.30
2017-12-23T03:48:56.252Z,120.10
2017-12-23T03:49:56.774Z,113.10
2017-12-23T03:50:56.146Z,127.20
2017-12-23T03:51:56.154Z,126.50
2017-12-23T03:52:56.168Z,124.30
2017-12-23T03:53:56.014Z,137.70
2017-12-23T03:54:56.079Z,127.50
2017-12-23T03:55:56.642Z,127.90
2017-12-23T03:56:56.218Z,134.90
2017-12-23T03:57:56.777Z,136.60
2017-12-23T03:58:56.116Z,125.50
2017-12-23T03:59:56.433Z,150.00
2017-12-23T04:00:55.323Z,141.20
2017-12-23T04:01:56.636Z,129.90
2017-12-23T04:02:56.099Z,117.10
2017-12-23T04:03:56.367Z,124.40
2017-12-23T04:04:55.933Z,124.30
2017-12-23T04:05:56.446Z,113.70
2017-12-23T04:06:56.754Z,112.50
2017-12-23T04:07:56.168Z,108.40
2017-12-23T04:08:57.180Z,103.30
2017-12-23T04:09:56.115Z,98.00
2017-12-23T04:10:56.472Z,96.90
2017-12-23T04:11:55.946Z,102.10
2017-12-23T04:12:55.852Z,96.10
2017-12-23T04:13:56.229Z,105.00
2017-12-23T04:14:56.908Z,95.20
2017-12-23T04:15:56.281Z,100.80
2017-12-23T04:16:56.653Z,102.80
2017-12-23T04:17:55.931Z,95.10
2017-12-23T04:18:55.922Z,91.00
2017-12-23T04:19:55.887Z,94.50
2017-12-23T04:20:55.922Z,98.10
2017-12-23T04:21:55.635Z,92.40
2017-12-23T04:22:55.959Z,98.70
2017-12-23T04:23:56.452Z,84.40
2017-12-23T04:24:55.902Z,91.00
2017-12-23T04:25:56.587Z,99.50
2017-12-23T04:26:55.823Z,97.40
2017-12-23T04:27:55.753Z,88.20
2017-12-23T04:28:55.919Z,102.10
2017-12-23T04:29:56.452Z,89.60
2017-12-23T04:30:56.039Z,81.70
2017-12-23T04:31:56.781Z,95.10
2017-12-23T04:32:55.560Z,84.30
2017-12-23T04:33:56.050Z,81.10
2017-12-23T04:34:55.954Z,86.50
2017-12-23T04:35:56.332Z,74.70
2017-12-23T04:36:55.872Z,84.40
2017-12-23T04:37:56.749Z,96.60
2017-12-23T04:38:55.576Z,87.60
2017-12-23T04:39:55.176Z,75.10
2017-12-23T04:40:55.871Z,75.50
2017-12-23T04:41:56.364Z,68.40
2017-12-23T04:42:55.894Z,63.90
2017-12-23T04:43:56.816Z,69.50
2017-12-23T04:44:55.825Z,66.60
2017-12-23T04:45:56.194Z,71.80
2017-12-23T04:46:56.716Z,66.50
2017-12-23T04:47:55.679Z,74.30
2017-12-23T04:48:55.478Z,72.20
2017-12-23T04:49:56.379Z,66.30
2017-12-23T04:50:55.438Z,67.90
2017-12-23T04:51:55.090Z,67.40
2017-12-23T04:52:56.492Z,60.20
2017-12-23T04:53:55.364Z,59.90
2017-12-23T04:54:55.676Z,62.00
2017-12-23T04:55:55.700Z,60.60
2017-12-23T04:56:55.691Z,60.20
2017-12-23T04:57:55.544Z,59.70
2017-12-23T04:58:55.922Z,62.90
2017-12-23T04:59:56.122Z,60.90
2017-12-23T05:00:56.390Z,59.20
2017-12-23T05:01:56.238Z,51.40
2017-12-23T05:02:56.318Z,57.50
2017-12-23T05:03:56.715Z,61.70
2017-12-23T05:04:55.449Z,60.90
2017-12-23T05:05:56.521Z,56.00
2017-12-23T05:06:55.132Z,56.00
2017-12-23T05:07:55.979Z,52.10
2017-12-23T05:08:56.286Z,52.60
2017-12-23T05:09:55.835Z,51.70
2017-12-23T05:10:55.653Z,51.10
2017-12-23T05:11:56.464Z,51.90
2017-12-23T05:12:55.828Z,56.30
2017-12-23T05:13:55.731Z,58.70
2017-12-23T05:14:55.445Z,52.20
2017-12-23T05:15:55.851Z,57.80
2017-12-23T05:16:56.383Z,52.10
2017-12-23T05:17:55.187Z,56.00
2017-12-23T05:18:56.206Z,52.70
2017-12-23T05:19:56.139Z,48.00
2017-12-23T05:20:56.245Z,49.70
2017-12-23T05:22:18.581Z,43.70
2017-12-23T05:23:18.931Z,39.20
2017-12-23T05:24:19.379Z,40.70
2017-12-23T05:25:19.431Z,32.70
2017-12-23T05:26:19.422Z,31.10
2017-12-23T05:27:20.073Z,35.70
2017-12-23T05:28:19.449Z,36.50
2017-12-23T05:29:19.280Z,30.90
2017-12-23T05:30:19.102Z,31.20
2017-12-23T05:31:18.948Z,29.40
2017-12-23T05:32:42.140Z,34.10
2017-12-23T05:33:41.778Z,27.80
2017-12-23T05:34:42.243Z,27.00
2017-12-23T05:35:42.586Z,25.80
2017-12-23T05:36:41.557Z,28.60
2017-12-23T05:37:41.762Z,28.00
2017-12-23T05:38:41.836Z,27.90
2017-12-23T05:39:41.773Z,30.20
2017-12-23T05:40:41.514Z,25.90
2017-12-23T05:42:04.695Z,31.40
2017-12-23T05:43:05.896Z,24.10
2017-12-23T05:44:04.713Z,20.80
2017-12-23T05:45:05.478Z,25.90
2017-12-23T05:46:05.328Z,23.00
2017-12-23T05:47:05.864Z,24.00
2017-12-23T05:48:05.001Z,23.70
2017-12-23T05:49:27.683Z,23.90
2017-12-23T05:50:27.870Z,24.10
2017-12-23T05:51:27.925Z,20.40
2017-12-23T05:52:28.219Z,27.00
2017-12-23T05:53:49.718Z,27.40
2017-12-23T05:54:51.481Z,26.50
2017-12-23T05:55:50.874Z,24.00
2017-12-23T05:56:51.324Z,23.20
2017-12-23T05:57:50.852Z,24.80
2017-12-23T05:58:51.129Z,24.60
2017-12-23T06:00:11.748Z,25.30
2017-12-23T06:01:11.457Z,26.70
2017-12-23T06:02:12.223Z,25.20
2017-12-23T06:03:12.154Z,25.20
2017-12-23T06:04:12.275Z,26.10
2017-12-23T06:05:13.147Z,26.10
2017-12-23T06:06:12.549Z,24.60
2017-12-23T06:07:11.730Z,21.10
2017-12-23T06:08:11.641Z,27.00
2017-12-23T06:09:11.519Z,25.70
2017-12-23T06:10:12.165Z,26.30
2017-12-23T06:11:12.210Z,25.00
2017-12-23T06:12:12.713Z,22.00
2017-12-23T06:13:12.192Z,27.30
2017-12-23T06:14:11.859Z,22.70
2017-12-23T06:15:12.196Z,25.60
2017-12-23T06:16:34.745Z,20.50
2017-12-23T06:17:35.196Z,21.40
2017-12-23T06:18:35.616Z,22.60
2017-12-23T06:19:35.498Z,19.20
2017-12-23T06:20:35.260Z,20.00
2017-12-23T06:21:35.650Z,17.90
2017-12-23T06:22:35.712Z,17.30
2017-12-23T06:23:35.511Z,18.70
2017-12-23T06:24:35.463Z,21.90
2017-12-23T06:25:35.753Z,21.90
2017-12-23T06:26:36.467Z,25.00
2017-12-23T06:27:35.878Z,20.80
2017-12-23T06:28:35.392Z,20.00
2017-12-23T06:29:35.192Z,21.20
2017-12-23T06:30:35.171Z,18.70
2017-12-23T06:31:35.354Z,22.30
2017-12-23T06:32:35.342Z,23.70
2017-12-23T06:33:35.007Z,21.40
2017-12-23T06:34:34.864Z,24.30
2017-12-23T06:35:36.138Z,21.30
2017-12-23T06:36:35.454Z,25.70
2017-12-23T06:37:36.008Z,22.10
2017-12-23T06:38:35.932Z,24.00
2017-12-23T06:39:35.274Z,22.50
2017-12-23T06:40:35.758Z,24.00
2017-12-23T06:41:35.378Z,26.20
2017-12-23T06:42:36.230Z,25.60
2017-12-23T06:43:35.719Z,25.60
2017-12-23T06:44:35.197Z,25.20
2017-12-23T06:45:35.759Z,30.80
2017-12-23T06:46:34.947Z,30.40
2017-12-23T06:47:34.717Z,27.80
2017-12-23T06:48:36.565Z,25.60
2017-12-23T06:49:35.498Z,25.60
2017-12-23T06:50:57.050Z,33.30
2017-12-23T06:51:58.014Z,32.90
2017-12-23T06:52:58.920Z,31.20
2017-12-23T06:53:58.614Z,30.00
2017-12-23T06:54:57.795Z,32.00
2017-12-23T06:55:57.674Z,37.90
2017-12-23T06:57:19.899Z,35.10
2017-12-23T06:58:21.125Z,37.10
2017-12-23T06:59:21.011Z,32.10
2017-12-23T07:00:43.607Z,39.70
2017-12-23T07:01:43.922Z,35.90
2017-12-23T07:02:43.757Z,34.90
2017-12-23T07:03:43.616Z,43.10
2017-12-23T07:04:44.129Z,42.70
2017-12-23T07:05:43.007Z,40.20
2017-12-23T07:06:43.910Z,38.10
2017-12-23T07:07:43.933Z,37.40
2017-12-23T07:08:44.014Z,47.50
2017-12-23T07:09:44.296Z,42.60
2017-12-23T07:10:43.676Z,44.20
2017-12-23T07:11:43.725Z,54.00
2017-12-23T07:13:06.477Z,50.70
2017-12-23T07:14:06.383Z,59.50
2017-12-23T07:15:06.747Z,40.70
2017-12-23T07:16:06.640Z,49.20
2017-12-23T07:17:06.533Z,56.10
2017-12-23T07:18:06.293Z,54.90
2017-12-23T07:19:06.806Z,53.80
2017-12-23T07:20:07.171Z,58.00
2017-12-23T07:21:06.657Z,56.40
2017-12-23T07:22:06.693Z,53.60
2017-12-23T07:23:06.802Z,52.20
2017-12-23T07:24:06.980Z,53.60
2017-12-23T07:25:07.195Z,57.00
2017-12-23T07:26:06.671Z,56.30
2017-12-23T07:27:07.036Z,60.70
2017-12-23T07:28:06.640Z,57.40
2017-12-23T07:29:07.105Z,57.20
2017-12-23T07:30:05.940Z,60.50
2017-12-23T07:31:07.152Z,62.50
2017-12-23T07:32:05.965Z,60.80
2017-12-23T07:33:06.657Z,58.40
2017-12-23T07:34:06.869Z,61.90
2017-12-23T07:35:07.571Z,70.20
2017-12-23T07:36:07.316Z,73.90
2017-12-23T07:37:29.377Z,71.00
2017-12-23T07:38:29.129Z,65.70
2017-12-23T07:39:29.658Z,76.30
2017-12-23T07:40:29.764Z,72.50
2017-12-23T07:41:30.213Z,73.10
2017-12-23T07:42:29.903Z,77.90
2017-12-23T07:43:28.893Z,78.00
2017-12-23T07:44:29.715Z,74.90
2017-12-23T07:45:29.915Z,78.10
2017-12-23T07:46:29.348Z,76.70
2017-12-23T07:47:30.388Z,85.60
2017-12-23T07:48:29.863Z,64.60
2017-12-23T07:49:30.318Z,67.70
2017-12-23T07:50:29.049Z,64.30
2017-12-23T07:51:53.446Z,73.80
2017-12-23T07:52:54.059Z,61.80
2017-12-23T07:53:54.494Z,56.40
2017-12-23T07:54:53.760Z,64.30
2017-12-23T07:55:53.568Z,61.80
2017-12-23T07:56:53.348Z,62.20
2017-12-23T07:57:54.035Z,58.70
2017-12-23T07:58:53.869Z,54.80
2017-12-23T07:59:54.340Z,52.30
2017-12-23T08:00:54.668Z,49.70
2017-12-23T08:01:54.146Z,50.20
2017-12-23T08:02:55.030Z,41.40
2017-12-23T08:03:54.754Z,44.60
2017-12-23T08:04:54.008Z,45.80
2017-12-23T08:05:54.601Z,43.90
2017-12-23T08:06:54.186Z,39.30
2017-12-23T08:07:54.928Z,36.90
2017-12-23T08:08:53.748Z,35.40
2017-12-23T08:09:54.060Z,29.60
2017-12-23T08:10:54.474Z,30.70
2017-12-23T08:11:53.214Z,28.70
2017-12-23T08:12:53.864Z,23.50
2017-12-23T08:13:54.677Z,23.60
2017-12-23T08:14:53.549Z,20.10
2017-12-23T08:15:54.099Z,20.40
2017-12-23T08:16:54.639Z,20.50
2017-12-23T08:17:54.110Z,21.60
2017-12-23T08:18:54.019Z,20.40
2017-12-23T08:19:54.763Z,19.40
2017-12-23T08:20:54.197Z,24.10
2017-12-23T08:21:53.410Z,24.30
2017-12-23T08:22:53.843Z,27.10
2017-12-23T08:24:16.267Z,28.50
2017-12-23T08:25:16.740Z,27.80
2017-12-23T08:26:16.966Z,28.80
2017-12-23T08:27:16.516Z,29.40
2017-12-23T08:28:16.481Z,27.40
2017-12-23T08:29:16.950Z,29.80
2017-12-23T08:30:17.472Z,31.30
2017-12-23T08:31:18.256Z,35.40
2017-12-23T08:32:16.811Z,38.80
2017-12-23T08:33:17.131Z,37.20
2017-12-23T08:34:16.591Z,37.80
2017-12-23T08:35:38.631Z,37.60
2017-12-23T08:36:39.189Z,44.50
2017-12-23T08:37:39.398Z,40.50
2017-12-23T08:38:39.883Z,39.20
2017-12-23T08:39:38.964Z,38.80
2017-12-23T08:40:39.777Z,44.60
2017-12-23T08:42:01.724Z,44.20
2017-12-23T08:43:01.508Z,45.30
2017-12-23T08:44:01.378Z,42.50
2017-12-23T08:45:01.573Z,41.40
2017-12-23T08:46:02.473Z,39.30
2017-12-23T08:47:01.969Z,38.20
2017-12-23T08:48:01.803Z,44.80
2017-12-23T08:49:02.353Z,47.80
2017-12-23T08:50:01.462Z,48.60
2017-12-23T08:51:01.767Z,53.40
2017-12-23T08:52:02.146Z,49.40
2017-12-23T08:53:02.034Z,53.10
2017-12-23T08:54:02.912Z,48.50
2017-12-23T08:55:02.146Z,50.30
2017-12-23T08:56:03.060Z,47.10
2017-12-23T08:57:01.894Z,51.50
2017-12-23T08:58:01.798Z,51.40
2017-12-23T08:59:02.464Z,45.60
2017-12-23T09:00:01.189Z,51.80
2017-12-23T09:01:02.764Z,47.80
2017-12-23T09:02:02.176Z,47.70
2017-12-23T09:03:02.381Z,59.30
2017-12-23T09:04:01.112Z,53.20
2017-12-23T09:05:02.562Z,55.10
2017-12-23T09:06:01.948Z,64.60
2017-12-23T09:07:02.113Z,64.90
2017-12-23T09:08:01.992Z,63.30
2017-12-23T09:09:01.856Z,59.70
2017-12-23T09:10:02.276Z,63.00
2017-12-23T09:11:01.153Z,57.60
2017-12-23T09:12:04.230Z,64.90
2017-12-23T09:13:01.516Z,63.50
2017-12-23T09:14:01.251Z,64.30
2017-12-23T09:15:24.231Z,63.80
2017-12-23T09:16:25.452Z,56.30
2017-12-23T09:17:25.903Z,62.60
2017-12-23T09:18:25.124Z,70.40
2017-12-23T09:19:24.977Z,71.90
2017-12-23T09:20:25.208Z,55.40
2017-12-23T09:21:25.423Z,66.50
2017-12-23T09:22:24.316Z,69.90
2017-12-23T09:23:25.968Z,73.00
2017-12-23T09:24:25.608Z,67.30
2017-12-23T09:25:25.775Z,72.70
2017-12-23T09:26:25.387Z,74.80
2017-12-23T09:27:24.254Z,63.10
2017-12-23T09:28:26.415Z,72.40
2017-12-23T09:29:25.257Z,68.40
2017-12-23T09:30:25.210Z,73.40
2017-12-23T09:31:25.751Z,69.60
2017-12-23T09:32:25.345Z,74.20
2017-12-23T09:33:25.562Z,67.00
2017-12-23T09:34:25.152Z,73.80
2017-12-23T09:35:26.190Z,81.60
2017-12-23T09:36:26.267Z,78.20
2017-12-23T09:37:24.367Z,69.30
2017-12-23T09:38:25.852Z,71.90
2017-12-23T09:39:25.338Z,74.40
2017-12-23T09:40:25.851Z,90.50
2017-12-23T09:41:24.853Z,76.60
2017-12-23T09:42:25.024Z,74.70
2017-12-23T09:43:25.818Z,86.10
2017-12-23T09:44:25.460Z,79.90
2017-12-23T09:45:24.469Z,78.60
2017-12-23T09:46:24.643Z,81.90
2017-12-23T09:47:27.370Z,81.90
2017-12-23T09:48:25.448Z,82.70
2017-12-23T09:49:27.088Z,84.00
2017-12-23T09:50:34.552Z,84.50
2017-12-23T09:51:42.185Z,82.70
2017-12-23T09:52:48.994Z,80.70
2017-12-23T09:54:13.663Z,86.40
2017-12-23T09:55:01.114Z,79.50
2017-12-23T09:56:00.667Z,70.80
2017-12-23T09:56:59.430Z,73.00
2017-12-23T09:57:54.335Z,73.10
2017-12-23T09:58:55.942Z,83.30
2017-12-23T09:59:53.761Z,75.90
2017-12-23T10:00:54.801Z,84.70
2017-12-23T10:01:53.822Z,79.60
2017-12-23T10:02:53.563Z,80.20
2017-12-23T10:03:54.259Z,81.60
2017-12-23T10:04:55.109Z,79.00
2017-12-23T10:05:54.679Z,83.40
2017-12-23T10:06:56.767Z,77.20
2017-12-23T10:08:02.106Z,78.90
2017-12-23T10:09:02.853Z,83.20
2017-12-23T10:10:12.569Z,75.70
2017-12-23T10:11:18.549Z,76.00
2017-12-23T10:12:16.369Z,83.80
2017-12-23T10:12:54.356Z,87.60
2017-12-23T10:13:53.913Z,84.80
2017-12-23T10:14:56.156Z,81.10
2017-12-23T10:15:55.581Z,76.70
2017-12-23T10:16:54.641Z,86.30
2017-12-23T10:17:54.418Z,83.70
2017-12-23T10:18:55.149Z,84.30
2017-12-23T10:19:54.985Z,70.60
2017-12-23T10:20:54.913Z,74.10
2017-12-23T10:21:55.279Z,82.60
2017-12-23T10:22:54.767Z,87.30
2017-12-23T10:23:55.747Z,75.30
2017-12-23T10:24:55.077Z,78.80
2017-12-23T10:25:55.188Z,79.10
2017-12-23T10:26:54.121Z,75.30
2017-12-23T10:27:54.651Z,78.70
2017-12-23T10:28:54.532Z,84.30
2017-12-23T10:29:54.599Z,88.20
2017-12-23T10:30:54.699Z,76.40
2017-12-23T10:31:56.726Z,87.40
2017-12-23T10:32:56.128Z,75.80
2017-12-23T10:33:54.766Z,84.50
2017-12-23T10:34:55.166Z,82.60
2017-12-23T10:35:54.680Z,72.00
2017-12-23T10:36:54.258Z,82.60
2017-12-23T10:37:54.938Z,83.30
2017-12-23T10:38:54.993Z,72.40
2017-12-23T10:39:54.643Z,68.10
2017-12-23T10:40:54.412Z,55.60
2017-12-23T10:41:54.653Z,76.70
2017-12-23T10:42:54.372Z,81.40
2017-12-23T10:43:54.065Z,79.20
2017-12-23T10:44:55.357Z,85.30
2017-12-23T10:45:54.018Z,80.70
2017-12-23T10:46:55.786Z,64.60
2017-12-23T10:47:54.405Z,63.00
2017-12-23T10:49:19.517Z,80.40
2017-12-23T10:50:19.821Z,77.10
2017-12-23T10:51:19.923Z,80.50
2017-12-23T10:52:42.844Z,59.30
2017-12-23T10:53:44.822Z,68.60
2017-12-23T10:54:44.071Z,64.40
2017-12-23T10:55:58.999Z,74.40
2017-12-23T10:56:53.213Z,69.50
2017-12-23T10:57:43.807Z,78.40
2017-12-23T10:58:56.385Z,69.90
2017-12-23T11:00:09.118Z,76.30
2017-12-23T11:00:56.187Z,84.90
2017-12-23T11:01:44.007Z,76.80
2017-12-23T11:02:42.510Z,73.60
2017-12-23T11:03:42.452Z,74.90
2017-12-23T11:04:44.243Z,74.00
2017-12-23T11:05:43.202Z,72.30
2017-12-23T11:06:43.775Z,76.20
2017-12-23T11:07:43.165Z,71.30
2017-12-23T11:08:45.058Z,74.70
2017-12-23T11:09:43.320Z,77.30
2017-12-23T11:10:43.488Z,76.40
2017-12-23T11:11:45.117Z,74.90
2017-12-23T11:12:42.843Z,68.60
2017-12-23T11:13:42.629Z,71.00
2017-12-23T11:14:45.148Z,66.10
2017-12-23T11:15:43.399Z,76.30
2017-12-23T11:16:44.456Z,74.80
2017-12-23T11:17:43.820Z,74.30
2017-12-23T11:18:43.300Z,70.70
2017-12-23T11:19:45.572Z,75.80
2017-12-23T11:20:43.142Z,73.80
2017-12-23T11:21:44.760Z,76.30
2017-12-23T11:22:43.519Z,70.90
2017-12-23T11:23:44.369Z,66.20
2017-12-23T11:24:44.463Z,69.20
2017-12-23T11:25:44.030Z,67.60
2017-12-23T11:26:43.304Z,66.70
2017-12-23T11:27:43.865Z,56.80
2017-12-23T11:28:42.718Z,61.70
2017-12-23T11:29:42.747Z,64.90
2017-12-23T11:30:43.232Z,66.80
2017-12-23T11:31:43.011Z,66.90
2017-12-23T11:32:43.301Z,67.00
2017-12-23T11:33:43.793Z,59.10
2017-12-23T11:34:42.693Z,63.40
2017-12-23T11:36:05.939Z,55.70
2017-12-23T11:37:07.535Z,64.00
2017-12-23T11:38:06.994Z,63.50
2017-12-23T11:39:16.230Z,58.70
2017-12-23T11:40:34.242Z,52.00
2017-12-23T11:41:30.275Z,58.40
2017-12-23T11:42:07.059Z,62.00
2017-12-23T11:43:06.873Z,55.90
2017-12-23T11:44:06.746Z,56.10
2017-12-23T11:45:08.366Z,60.30
2017-12-23T11:46:06.593Z,60.30
2017-12-23T11:47:06.625Z,60.00
2017-12-23T11:48:06.547Z,58.00
2017-12-23T11:49:06.785Z,64.50
2017-12-23T11:50:36.025Z,61.70
2017-12-23T11:51:36.907Z,54.90
2017-12-23T11:52:35.768Z,56.10
2017-12-23T11:53:35.652Z,60.80
2017-12-23T11:54:35.743Z,56.80
2017-12-23T11:55:36.791Z,57.50
2017-12-23T11:56:37.307Z,51.50
2017-12-23T11:57:36.781Z,55.80
2017-12-23T11:58:38.648Z,52.10
2017-12-23T12:00:20.418Z,57.40
2017-12-23T12:01:21.122Z,52.50
2017-12-23T12:02:20.688Z,56.50
2017-12-23T12:03:21.338Z,54.00
2017-12-23T12:04:20.715Z,51.70
2017-12-23T12:05:21.292Z,51.90
2017-12-23T12:06:21.402Z,50.80
2017-12-23T12:07:20.804Z,49.40
2017-12-23T12:08:21.326Z,48.50
2017-12-23T12:09:20.754Z,43.60
2017-12-23T12:10:20.787Z,44.70
2017-12-23T12:11:21.943Z,39.60
2017-12-23T12:12:20.593Z,43.40
2017-12-23T12:13:42.844Z,41.60
2017-12-23T12:14:43.293Z,46.30
2017-12-23T12:15:43.604Z,45.50
2017-12-23T12:16:43.640Z,49.20
2017-12-23T12:17:43.056Z,49.70
2017-12-23T12:18:43.254Z,38.50
2017-12-23T12:19:44.985Z,32.30
2017-12-23T12:20:43.431Z,42.70
2017-12-23T12:21:44.850Z,42.30
2017-12-23T12:22:42.760Z,39.60
2017-12-23T12:23:42.598Z,45.10
2017-12-23T12:24:43.079Z,41.10
2017-12-23T12:25:42.868Z,39.30
2017-12-23T12:27:05.602Z,42.70
2017-12-23T12:28:05.913Z,36.50
2017-12-23T12:29:05.300Z,36.10
2017-12-23T12:30:05.144Z,41.00
2017-12-23T12:31:05.926Z,36.00
2017-12-23T12:32:05.801Z,37.90
2017-12-23T12:33:06.493Z,39.70
2017-12-23T12:34:06.617Z,32.90
2017-12-23T12:35:06.233Z,39.30
2017-12-23T12:36:10.591Z,37.30
2017-12-23T12:37:05.876Z,40.50
2017-12-23T12:38:18.120Z,33.40
2017-12-23T12:39:06.021Z,30.90
2017-12-23T12:40:05.609Z,29.80
2017-12-23T12:41:05.750Z,35.70
2017-12-23T12:42:05.713Z,34.70
2017-12-23T12:43:06.853Z,35.60
2017-12-23T12:44:05.150Z,33.00
2017-12-23T12:45:05.513Z,32.00
2017-12-23T12:46:06.061Z,33.10
2017-12-23T12:47:07.006Z,22.50
2017-12-23T12:48:07.988Z,25.40
2017-12-23T12:49:06.736Z,29.80
2017-12-23T12:50:09.223Z,31.00
2017-12-23T12:51:05.566Z,32.20
2017-12-23T12:52:07.263Z,33.70
2017-12-23T12:53:08.252Z,32.00
2017-12-23T12:54:06.237Z,30.30
2017-12-23T12:55:07.060Z,29.20
2017-12-23T12:56:08.673Z,25.00
2017-12-23T12:57:07.359Z,32.10
2017-12-23T12:58:31.481Z,32.40
2017-12-23T12:59:31.835Z,29.00